Elizabethton, Tennessee
Current Conditions -  °F | °C
As of 9:35 AM on Friday 28 Nov 2014 (Local Time) from K0A9 Reporting Station
Overcast Overcast  
Wind Chill: 20°   Ceiling: 3100
Heat Index: 27°   Visibility: 10mi
Dew Point: 18°   Wind: 6mph
Humidity: 69%   Direction: NA
Pressure: 30.38"   Gusts: NA
Location:  36.35°N, 82.22°W
Report Text: K0A9 281435Z AUTO VRB05KT 10SM OVC031 M03/M08 A3038 RMK
Loading
Personal Weather Stations






























Interactive Weather Map New forecast layout! Learn more

10-Day Weather Forecast

Advertisements
Track Severe Weather on mobile